AMC11M EGKK-EHAM
Flight info
| Callsign | AMC11M |
|---|---|
| Flight time | N/A |
| Altitude | 25000 |
| Route | FRANE M604 GASBA M197 REDFA |
| Aircraft | A20N/M-SDE2E3FGHIRWXY/LB1 |
Departure
| Time | 2026-05-05 17:06 |
|---|---|
| Airport | London Gatwick Airport (EGKK) |
Arrival
| Time | N/A |
|---|---|
| Airport | Amsterdam Airport Schiphol (EHAM) |
| Time | Latitude | Longitude | Altitude | Speed | Heading |
|---|---|---|---|---|---|
| 2026-05-05 16:33 | 51.15816 | -0.17690 | 196 ft | 0 kts | 347° |
| 2026-05-05 16:51 | 51.15812 | -0.17688 | 196 ft | 2 kts | 348° |
| 2026-05-05 16:51 | 51.15798 | -0.17683 | 196 ft | 2 kts | 347° |
| 2026-05-05 16:51 | 51.15783 | -0.17678 | 197 ft | 2 kts | 347° |
| 2026-05-05 16:51 | 51.15770 | -0.17673 | 197 ft | 0 kts | 347° |
| 2026-05-05 16:52 | 51.15765 | -0.17672 | 197 ft | 0 kts | 322° |
| 2026-05-05 16:52 | 51.15762 | -0.17666 | 197 ft | 0 kts | 268° |
| 2026-05-05 16:52 | 51.15763 | -0.17658 | 197 ft | 0 kts | 251° |
| 2026-05-05 16:52 | 51.15765 | -0.17653 | 196 ft | 0 kts | 256° |
| 2026-05-05 16:57 | 51.15752 | -0.17683 | 196 ft | 9 kts | 226° |
| 2026-05-05 16:57 | 51.15728 | -0.17770 | 196 ft | 9 kts | 250° |
| 2026-05-05 16:58 | 51.15704 | -0.17890 | 193 ft | 12 kts | 259° |
| 2026-05-05 16:58 | 51.15687 | -0.18032 | 193 ft | 13 kts | 258° |
| 2026-05-05 16:58 | 51.15664 | -0.18197 | 190 ft | 16 kts | 257° |
| 2026-05-05 16:58 | 51.15642 | -0.18334 | 190 ft | 10 kts | 236° |
| 2026-05-05 16:59 | 51.15576 | -0.18344 | 192 ft | 12 kts | 167° |
| 2026-05-05 16:59 | 51.15478 | -0.18309 | 193 ft | 14 kts | 168° |
| 2026-05-05 16:59 | 51.15374 | -0.18275 | 193 ft | 15 kts | 168° |
| 2026-05-05 16:59 | 51.15270 | -0.18239 | 193 ft | 15 kts | 168° |
| 2026-05-05 17:00 | 51.15192 | -0.18247 | 194 ft | 10 kts | 232° |
| 2026-05-05 17:00 | 51.15169 | -0.18387 | 196 ft | 17 kts | 260° |
| 2026-05-05 17:00 | 51.15149 | -0.18578 | 196 ft | 17 kts | 258° |
| 2026-05-05 17:00 | 51.15123 | -0.18773 | 196 ft | 18 kts | 258° |
| 2026-05-05 17:01 | 51.15094 | -0.18976 | 196 ft | 18 kts | 257° |
| 2026-05-05 17:01 | 51.15065 | -0.19188 | 195 ft | 20 kts | 257° |
| 2026-05-05 17:01 | 51.15035 | -0.19410 | 193 ft | 21 kts | 257° |
| 2026-05-05 17:01 | 51.15003 | -0.19640 | 193 ft | 21 kts | 258° |
| 2026-05-05 17:02 | 51.14971 | -0.19863 | 196 ft | 20 kts | 257° |
| 2026-05-05 17:02 | 51.14943 | -0.20079 | 196 ft | 19 kts | 255° |
| 2026-05-05 17:02 | 51.14913 | -0.20289 | 198 ft | 19 kts | 257° |
| 2026-05-05 17:02 | 51.14884 | -0.20501 | 197 ft | 19 kts | 257° |
| 2026-05-05 17:03 | 51.14854 | -0.20719 | 197 ft | 20 kts | 258° |
| 2026-05-05 17:03 | 51.14824 | -0.20941 | 198 ft | 19 kts | 257° |
| 2026-05-05 17:03 | 51.14794 | -0.21137 | 199 ft | 17 kts | 246° |
| 2026-05-05 17:03 | 51.14763 | -0.21318 | 201 ft | 14 kts | 259° |
| 2026-05-05 17:04 | 51.14706 | -0.21387 | 203 ft | 12 kts | 178° |
| 2026-05-05 17:04 | 51.14640 | -0.21336 | 203 ft | 3 kts | 158° |
| 2026-05-05 17:04 | 51.14637 | -0.21334 | 203 ft | 0 kts | 162° |
| 2026-05-05 17:04 | 51.14632 | -0.21332 | 203 ft | 2 kts | 165° |
| 2026-05-05 17:05 | 51.14572 | -0.21304 | 202 ft | 18 kts | 153° |
| 2026-05-05 17:05 | 51.14527 | -0.21121 | 199 ft | 19 kts | 78° |
| 2026-05-05 17:05 | 51.14595 | -0.20641 | 196 ft | 83 kts | 76° |
| 2026-05-05 17:05 | 51.14773 | -0.19351 | 194 ft | 152 kts | 78° |
| 2026-05-05 17:06 | 51.15021 | -0.17578 | 652 ft | 170 kts | 78° |
| 2026-05-05 17:06 | 51.15273 | -0.15777 | 1453 ft | 171 kts | 79° |
| 2026-05-05 17:06 | 51.15523 | -0.13971 | 2220 ft | 170 kts | 79° |
| 2026-05-05 17:06 | 51.15785 | -0.12057 | 2687 ft | 186 kts | 79° |
| 2026-05-05 17:07 | 51.16072 | -0.09962 | 3146 ft | 203 kts | 79° |
| 2026-05-05 17:07 | 51.16386 | -0.07673 | 3593 ft | 222 kts | 80° |
| 2026-05-05 17:07 | 51.16710 | -0.05153 | 3986 ft | 245 kts | 83° |
| 2026-05-05 17:07 | 51.16872 | -0.02368 | 4515 ft | 262 kts | 91° |
| 2026-05-05 17:08 | 51.16853 | 0.00563 | 4972 ft | 269 kts | 94° |
| 2026-05-05 17:08 | 51.16793 | 0.03541 | 5127 ft | 271 kts | 94° |
| 2026-05-05 17:08 | 51.16729 | 0.06535 | 5127 ft | 271 kts | 94° |
| 2026-05-05 17:08 | 51.16666 | 0.09522 | 5130 ft | 271 kts | 94° |
| 2026-05-05 17:09 | 51.16607 | 0.12537 | 5126 ft | 271 kts | 94° |
| 2026-05-05 17:09 | 51.16551 | 0.15534 | 5130 ft | 271 kts | 93° |
| 2026-05-05 17:09 | 51.16540 | 0.18518 | 5131 ft | 271 kts | 92° |
| 2026-05-05 17:09 | 51.16553 | 0.21498 | 5131 ft | 271 kts | 91° |
| 2026-05-05 17:10 | 51.16568 | 0.24508 | 5133 ft | 271 kts | 92° |
| 2026-05-05 17:10 | 51.16578 | 0.27527 | 5142 ft | 271 kts | 92° |
| 2026-05-05 17:10 | 51.16584 | 0.30517 | 5127 ft | 271 kts | 92° |
| 2026-05-05 17:10 | 51.16589 | 0.33485 | 5131 ft | 271 kts | 92° |
| 2026-05-05 17:11 | 51.16593 | 0.36503 | 5144 ft | 272 kts | 92° |
| 2026-05-05 17:11 | 51.16594 | 0.39506 | 5140 ft | 271 kts | 92° |
| 2026-05-05 17:11 | 51.16595 | 0.42481 | 5147 ft | 271 kts | 92° |
| 2026-05-05 17:11 | 51.16595 | 0.45492 | 5138 ft | 271 kts | 92° |
| 2026-05-05 17:12 | 51.16595 | 0.48496 | 5132 ft | 271 kts | 92° |
| 2026-05-05 17:12 | 51.16692 | 0.51461 | 5125 ft | 274 kts | 78° |
| 2026-05-05 17:12 | 51.17580 | 0.54135 | 5120 ft | 278 kts | 46° |
| 2026-05-05 17:12 | 51.19201 | 0.55773 | 5127 ft | 280 kts | 17° |
| 2026-05-05 17:13 | 51.21097 | 0.56477 | 5140 ft | 280 kts | 10° |
| 2026-05-05 17:13 | 51.23011 | 0.57088 | 5142 ft | 280 kts | 11° |
| 2026-05-05 17:13 | 51.24889 | 0.57718 | 5132 ft | 280 kts | 11° |
| 2026-05-05 17:13 | 51.26810 | 0.58401 | 5125 ft | 280 kts | 12° |
| 2026-05-05 17:14 | 51.28686 | 0.59089 | 5129 ft | 280 kts | 12° |
| 2026-05-05 17:14 | 51.30587 | 0.59795 | 5141 ft | 280 kts | 12° |
| 2026-05-05 17:14 | 51.32499 | 0.60510 | 5366 ft | 288 kts | 12° |
| 2026-05-05 17:14 | 51.34439 | 0.61239 | 5879 ft | 287 kts | 12° |
| 2026-05-05 17:15 | 51.36386 | 0.61971 | 6077 ft | 287 kts | 12° |
| 2026-05-05 17:15 | 51.38313 | 0.62694 | 6077 ft | 286 kts | 12° |
| 2026-05-05 17:15 | 51.40227 | 0.63414 | 6202 ft | 292 kts | 12° |
| 2026-05-05 17:15 | 51.42205 | 0.64162 | 6952 ft | 296 kts | 12° |
| 2026-05-05 17:16 | 51.44183 | 0.64913 | 7926 ft | 295 kts | 12° |
| 2026-05-05 17:16 | 51.46166 | 0.65666 | 8757 ft | 299 kts | 12° |
| 2026-05-05 17:16 | 51.48178 | 0.66429 | 9556 ft | 303 kts | 12° |
| 2026-05-05 17:16 | 51.50222 | 0.67206 | 10350 ft | 307 kts | 12° |
| 2026-05-05 17:17 | 51.52320 | 0.68003 | 10897 ft | 320 kts | 12° |
| 2026-05-05 17:17 | 51.54528 | 0.68841 | 11280 ft | 337 kts | 12° |
| 2026-05-05 17:17 | 51.56870 | 0.69732 | 11628 ft | 356 kts | 12° |
| 2026-05-05 17:17 | 51.59344 | 0.70673 | 11945 ft | 374 kts | 12° |
| 2026-05-05 17:18 | 51.61915 | 0.71650 | 12242 ft | 391 kts | 12° |
| 2026-05-05 17:18 | 51.64592 | 0.72668 | 12519 ft | 407 kts | 12° |
| 2026-05-05 17:18 | 51.67416 | 0.73745 | 12815 ft | 421 kts | 12° |
| 2026-05-05 17:18 | 51.70271 | 0.74835 | 13355 ft | 427 kts | 12° |
| 2026-05-05 17:19 | 51.73133 | 0.75932 | 14007 ft | 430 kts | 12° |
| 2026-05-05 17:19 | 51.76032 | 0.77043 | 14634 ft | 433 kts | 12° |
| 2026-05-05 17:19 | 51.78985 | 0.78209 | 15186 ft | 437 kts | 14° |
| 2026-05-05 17:19 | 51.81819 | 0.79972 | 15718 ft | 444 kts | 25° |
| 2026-05-05 17:20 | 51.84362 | 0.82807 | 16217 ft | 449 kts | 44° |
| 2026-05-05 17:20 | 51.86196 | 0.86853 | 16733 ft | 451 kts | 65° |
| 2026-05-05 17:20 | 51.87120 | 0.91635 | 17248 ft | 450 kts | 84° |
| 2026-05-05 17:20 | 51.87232 | 0.96674 | 17788 ft | 450 kts | 91° |
| 2026-05-05 17:21 | 51.87566 | 1.01690 | 18218 ft | 459 kts | 79° |
| 2026-05-05 17:21 | 51.88335 | 1.06729 | 18737 ft | 462 kts | 77° |
| 2026-05-05 17:21 | 51.89162 | 1.11720 | 19188 ft | 466 kts | 76° |
| 2026-05-05 17:22 | 51.90945 | 1.21889 | 20120 ft | 473 kts | 76° |
| 2026-05-05 17:22 | 51.91857 | 1.27001 | 20571 ft | 476 kts | 75° |
| 2026-05-05 17:22 | 51.92767 | 1.32093 | 21012 ft | 479 kts | 76° |
| 2026-05-05 17:22 | 51.93693 | 1.37283 | 21445 ft | 482 kts | 76° |
| 2026-05-05 17:23 | 51.94609 | 1.42439 | 21844 ft | 485 kts | 75° |
| 2026-05-05 17:23 | 51.95053 | 1.44941 | 22048 ft | 486 kts | 76° |
| 2026-05-05 17:23 | 51.95408 | 1.46931 | 22202 ft | 488 kts | 76° |
| 2026-05-05 17:24 | 51.96344 | 1.52212 | 22560 ft | 492 kts | 76° |
| 2026-05-05 17:24 | 51.97247 | 1.57345 | 22900 ft | 495 kts | 76° |
| 2026-05-05 17:24 | 51.98147 | 1.62483 | 23254 ft | 497 kts | 76° |
| 2026-05-05 17:24 | 51.99070 | 1.67757 | 23620 ft | 499 kts | 77° |
| 2026-05-05 17:25 | 51.99928 | 1.72946 | 24039 ft | 499 kts | 77° |
| 2026-05-05 17:25 | 52.00493 | 1.76562 | 24416 ft | 496 kts | 78° |
| 2026-05-05 17:25 | 52.01584 | 1.83698 | 24972 ft | 491 kts | 77° |
| 2026-05-05 17:25 | 52.02374 | 1.88878 | 24984 ft | 485 kts | 77° |
| 2026-05-05 17:26 | 52.03188 | 1.94184 | 24957 ft | 483 kts | 77° |
| 2026-05-05 17:26 | 52.04004 | 1.99485 | 24946 ft | 483 kts | 76° |
| 2026-05-05 17:26 | 52.04807 | 2.04712 | 24937 ft | 482 kts | 76° |
| 2026-05-05 17:26 | 52.05608 | 2.09943 | 24937 ft | 482 kts | 76° |
| 2026-05-05 17:27 | 52.06406 | 2.15173 | 24931 ft | 482 kts | 76° |
| 2026-05-05 17:27 | 52.07204 | 2.20431 | 24927 ft | 482 kts | 76° |
| 2026-05-05 17:27 | 52.08000 | 2.25687 | 24929 ft | 482 kts | 76° |
| 2026-05-05 17:27 | 52.08801 | 2.30993 | 24929 ft | 483 kts | 76° |
| 2026-05-05 17:28 | 52.09593 | 2.36260 | 24927 ft | 483 kts | 76° |
| 2026-05-05 17:28 | 52.10390 | 2.41539 | 24757 ft | 485 kts | 75° |
| 2026-05-05 17:28 | 52.11374 | 2.46724 | 24140 ft | 484 kts | 70° |
| 2026-05-05 17:28 | 52.12609 | 2.51604 | 23336 ft | 480 kts | 64° |
| 2026-05-05 17:29 | 52.14090 | 2.56197 | 22601 ft | 474 kts | 60° |
| 2026-05-05 17:29 | 52.15594 | 2.60383 | 22533 ft | 468 kts | 59° |